createdAt,value
2019-05-10T00:01:12.270Z,96073.11
2019-05-10T00:04:01.706Z,96069.65
2019-05-10T00:06:50.989Z,96072.66
2019-05-10T00:09:21.771Z,96068.78
2019-05-10T00:12:03.922Z,96067.58
2019-05-10T00:14:47.935Z,96075.82
2019-05-10T00:17:21.234Z,96067.64
2019-05-10T00:19:52.966Z,96064.25
2019-05-10T00:22:24.998Z,96066.84
2019-05-10T00:25:03.997Z,96065.58
2019-05-10T00:27:29.767Z,96066.45
2019-05-10T00:30:01.156Z,96071.64
2019-05-10T00:32:33.946Z,96078.06
2019-05-10T00:35:06.051Z,96087.07
2019-05-10T00:37:37.508Z,96087.02
2019-05-10T00:40:09.439Z,96091.30
2019-05-10T00:42:40.721Z,96092.97
2019-05-10T00:45:12.426Z,96093.00
2019-05-10T00:47:43.928Z,96101.18
2019-05-10T00:50:15.747Z,96097.75
2019-05-10T00:52:47.081Z,96102.55
2019-05-10T00:55:19.512Z,96104.69
2019-05-10T00:57:51.153Z,96101.66
2019-05-10T01:00:22.666Z,96113.31
2019-05-10T01:02:54.437Z,96113.77
2019-05-10T01:05:25.817Z,96110.32
2019-05-10T01:07:57.258Z,96113.74
2019-05-10T01:10:29.069Z,96119.34
2019-05-10T01:13:00.426Z,96122.37
2019-05-10T01:15:31.886Z,96125.84
2019-05-10T01:18:03.252Z,96130.19
2019-05-10T01:20:34.775Z,96132.75
2019-05-10T01:23:06.227Z,96126.77
2019-05-10T01:25:37.975Z,96133.62
2019-05-10T01:28:09.381Z,96135.33
2019-05-10T01:30:41.037Z,96133.62
2019-05-10T01:33:12.427Z,96137.47
2019-05-10T01:35:44.947Z,96138.30
2019-05-10T01:38:16.389Z,96140.47
2019-05-10T01:40:48.100Z,96141.34
2019-05-10T01:43:19.991Z,96152.06
2019-05-10T01:45:51.490Z,96146.92
2019-05-10T01:48:22.831Z,96151.66
2019-05-10T01:50:54.278Z,96153.80
2019-05-10T01:53:26.104Z,96159.37
2019-05-10T01:55:57.558Z,96157.27
2019-05-10T01:58:28.994Z,96157.67
2019-05-10T02:01:00.394Z,96165.42
2019-05-10T02:03:31.842Z,96174.88
2019-05-10T02:06:03.604Z,96173.60
2019-05-10T02:08:35.012Z,96170.19
2019-05-10T02:11:06.575Z,96183.09
2019-05-10T02:13:38.733Z,96177.55
2019-05-10T02:16:10.088Z,96189.61
2019-05-10T02:18:41.638Z,96187.06
2019-05-10T02:21:13.057Z,96193.96
2019-05-10T02:23:44.596Z,96196.56
2019-05-10T02:26:15.941Z,96194.84
2019-05-10T02:28:47.204Z,96199.98
2019-05-10T02:31:21.605Z,96202.13
2019-05-10T02:33:51.637Z,96205.98
2019-05-10T02:36:23.318Z,96206.41
2019-05-10T02:38:54.738Z,96210.29
2019-05-10T02:41:26.110Z,96209.02
2019-05-10T02:43:57.452Z,96212.86
2019-05-10T02:46:28.881Z,96213.71
2019-05-10T02:49:00.160Z,96219.70
2019-05-10T02:51:31.542Z,96209.42
2019-05-10T02:54:03.230Z,96211.19
2019-05-10T02:56:36.566Z,96219.77
2019-05-10T02:59:10.026Z,96215.52
2019-05-10T03:01:46.566Z,96216.41
2019-05-10T03:04:18.064Z,96222.45
2019-05-10T03:06:54.121Z,96219.88
2019-05-10T03:09:30.334Z,96219.50
2019-05-10T03:12:26.056Z,96225.10
2019-05-10T03:14:59.952Z,96220.83
2019-05-10T03:17:31.489Z,96216.52
2019-05-10T03:20:03.561Z,96216.53
2019-05-10T03:22:43.554Z,96221.75
2019-05-10T03:25:15.973Z,96224.32
2019-05-10T03:27:47.630Z,96222.19
2019-05-10T03:30:19.110Z,96223.92
2019-05-10T03:32:51.191Z,96229.52
2019-05-10T03:35:22.495Z,96234.25
2019-05-10T03:37:54.316Z,96230.43
2019-05-10T03:40:27.080Z,96231.27
2019-05-10T03:42:58.802Z,96229.58
2019-05-10T03:45:30.184Z,96242.02
2019-05-10T03:48:01.836Z,96243.34
2019-05-10T03:50:33.428Z,96245.91
2019-05-10T03:53:05.215Z,96250.20
2019-05-10T03:55:36.524Z,96249.32
2019-05-10T03:58:07.986Z,96249.77
2019-05-10T04:00:39.253Z,96253.19
2019-05-10T04:03:10.614Z,96254.90
2019-05-10T04:05:42.097Z,96254.44
2019-05-10T04:08:13.792Z,96239.84
2019-05-10T04:10:45.239Z,96250.58
2019-05-10T04:13:16.672Z,96244.17
2019-05-10T04:15:48.064Z,96257.92
2019-05-10T04:18:19.278Z,96256.17
2019-05-10T04:20:51.573Z,96264.75
2019-05-10T04:23:22.998Z,96266.03
2019-05-10T04:25:54.431Z,96262.16
2019-05-10T04:28:25.906Z,96268.20
2019-05-10T04:30:57.353Z,96278.51
2019-05-10T04:33:28.629Z,96269.50
2019-05-10T04:36:00.221Z,96269.09
2019-05-10T04:38:31.534Z,96275.09
2019-05-10T04:41:03.245Z,96278.09
2019-05-10T04:43:34.849Z,96278.52
2019-05-10T04:46:06.591Z,96287.96
2019-05-10T04:48:37.831Z,96291.35
2019-05-10T04:51:09.172Z,96284.47
2019-05-10T04:53:40.724Z,96289.59
2019-05-10T04:56:12.010Z,96286.51
2019-05-10T04:58:43.286Z,96287.72
2019-05-10T05:01:15.088Z,96283.02
2019-05-10T05:03:46.533Z,96286.91
2019-05-10T05:06:17.870Z,96297.20
2019-05-10T05:08:49.573Z,96297.18
2019-05-10T05:11:20.971Z,96298.02
2019-05-10T05:13:52.316Z,96304.37
2019-05-10T05:16:23.879Z,96294.88
2019-05-10T05:18:55.286Z,96302.05
2019-05-10T05:21:27.062Z,96293.28
2019-05-10T05:23:58.514Z,96292.77
2019-05-10T05:26:29.786Z,96299.13
2019-05-10T05:29:01.085Z,96305.01
2019-05-10T05:31:32.349Z,96308.88
2019-05-10T05:34:04.809Z,96308.09
2019-05-10T05:36:37.626Z,96307.10
2019-05-10T05:39:09.667Z,96311.92
2019-05-10T05:41:49.289Z,96313.20
2019-05-10T05:44:13.999Z,96319.66
2019-05-10T05:46:45.275Z,96317.90
2019-05-10T05:49:16.640Z,96313.59
2019-05-10T05:51:48.091Z,96318.25
2019-05-10T05:54:20.791Z,96326.77
2019-05-10T05:56:53.095Z,96326.39
2019-05-10T05:59:26.274Z,96327.66
2019-05-10T06:02:00.594Z,96322.69
2019-05-10T06:04:31.088Z,96334.81
2019-05-10T06:07:02.285Z,96330.11
2019-05-10T06:09:37.812Z,96333.60
2019-05-10T06:12:07.578Z,96336.84
2019-05-10T06:14:43.249Z,96343.58
2019-05-10T06:17:13.203Z,96339.95
2019-05-10T06:19:44.766Z,96344.52
2019-05-10T06:22:16.615Z,96343.25
2019-05-10T06:24:52.371Z,96353.08
2019-05-10T06:27:21.410Z,96351.23
2019-05-10T06:29:52.837Z,96349.98
2019-05-10T06:32:24.402Z,96355.46
2019-05-10T06:34:55.843Z,96361.35
2019-05-10T06:37:30.913Z,96358.44
2019-05-10T06:40:01.040Z,96356.61
2019-05-10T06:42:34.701Z,96356.95
2019-05-10T06:45:14.147Z,96362.66
2019-05-10T06:47:41.974Z,96363.20
2019-05-10T06:50:13.119Z,96366.96
2019-05-10T06:52:44.740Z,96361.58
2019-05-10T06:55:16.188Z,96369.07
2019-05-10T06:57:50.547Z,96365.31
2019-05-10T07:00:21.388Z,96366.52
2019-05-10T07:02:53.165Z,96368.23
2019-05-10T07:05:24.532Z,96371.89
2019-05-10T07:07:59.986Z,96374.94
2019-05-10T07:10:33.731Z,96381.14
2019-05-10T07:13:03.537Z,96388.80
2019-05-10T07:15:42.206Z,96388.84
2019-05-10T07:18:08.700Z,96393.30
2019-05-10T07:20:43.088Z,96388.45
2019-05-10T07:23:13.211Z,96391.70
2019-05-10T07:25:46.787Z,96388.69
2019-05-10T07:28:17.865Z,96390.05
2019-05-10T07:30:49.278Z,96372.27
2019-05-10T07:33:20.679Z,96373.73
2019-05-10T07:35:52.449Z,96381.14
2019-05-10T07:38:31.017Z,96380.50
2019-05-10T07:40:57.224Z,96384.41
2019-05-10T07:43:29.660Z,96381.42
2019-05-10T07:46:06.183Z,96392.61
2019-05-10T07:48:35.542Z,96390.38
2019-05-10T07:51:07.177Z,96396.07
2019-05-10T07:53:38.519Z,96389.63
2019-05-10T07:56:09.833Z,96398.32
2019-05-10T07:58:43.189Z,96391.69
2019-05-10T08:01:14.440Z,96394.93
2019-05-10T08:03:51.764Z,96402.56
2019-05-10T08:06:19.390Z,96405.15
2019-05-10T08:08:55.545Z,96397.04
2019-05-10T08:11:24.145Z,96396.03
2019-05-10T08:13:59.754Z,96395.87
2019-05-10T08:16:29.073Z,96398.22
2019-05-10T08:19:02.373Z,96411.69
2019-05-10T08:21:35.033Z,96410.76
2019-05-10T08:24:13.331Z,96426.44
2019-05-10T08:26:42.570Z,96417.98
2019-05-10T08:29:16.944Z,96412.13
2019-05-10T08:31:52.869Z,96427.67
2019-05-10T08:34:22.510Z,96421.67
2019-05-10T08:36:53.102Z,96413.17
2019-05-10T08:39:24.539Z,96418.56
2019-05-10T08:42:03.945Z,96416.58
2019-05-10T08:44:29.039Z,96417.86
2019-05-10T08:47:02.289Z,96421.00
2019-05-10T08:49:43.595Z,96441.27
2019-05-10T08:52:07.214Z,96417.77
2019-05-10T08:54:38.612Z,96417.31
2019-05-10T09:00:03.285Z,96410.93
2019-05-10T09:02:32.923Z,96414.75
2019-05-10T09:05:04.561Z,96414.72
2019-05-10T09:07:38.992Z,96422.63
2019-05-10T09:10:12.555Z,96430.71
2019-05-10T09:12:51.242Z,96434.29
2019-05-10T09:15:16.718Z,96438.18
2019-05-10T09:17:49.057Z,96452.20
2019-05-10T09:20:25.913Z,96448.39
2019-05-10T09:22:53.837Z,96453.26
2019-05-10T09:25:29.712Z,96460.92
2019-05-10T09:28:02.292Z,96443.80
2019-05-10T09:30:36.810Z,96460.14
2019-05-10T09:33:10.341Z,96452.71
2019-05-10T09:35:47.052Z,96461.34
2019-05-10T09:38:15.037Z,96454.84
2019-05-10T09:40:53.017Z,96465.09
2019-05-10T09:43:23.613Z,96463.81
2019-05-10T09:45:53.251Z,96468.59
2019-05-10T09:48:24.608Z,96474.94
2019-05-10T09:51:00.190Z,96468.02
2019-05-10T09:53:30.497Z,96475.69
2019-05-10T09:56:03.354Z,96475.77
2019-05-10T09:58:35.204Z,96474.20
2019-05-10T10:01:14.794Z,96480.46
2019-05-10T10:03:43.725Z,96476.11
2019-05-10T10:06:13.274Z,96467.38
2019-05-10T10:08:50.493Z,96475.48
2019-05-10T10:11:18.712Z,96474.33
2019-05-10T10:13:59.119Z,96472.77
2019-05-10T10:16:23.749Z,96486.70
2019-05-10T10:18:55.198Z,96477.87
2019-05-10T10:21:35.015Z,96478.88
2019-05-10T10:24:00.355Z,96473.56
2019-05-10T10:26:32.159Z,96480.88
2019-05-10T10:29:03.536Z,96475.75
2019-05-10T10:31:48.260Z,96475.70
2019-05-10T10:34:08.183Z,96481.80
2019-05-10T10:36:43.717Z,96481.81
2019-05-10T10:39:14.033Z,96469.65
2019-05-10T10:41:45.567Z,96461.95
2019-05-10T10:44:18.206Z,96467.44
2019-05-10T10:46:49.738Z,96468.44
2019-05-10T10:49:23.219Z,96472.64
2019-05-10T10:51:54.094Z,96473.50
2019-05-10T10:54:28.631Z,96464.72
2019-05-10T10:56:59.681Z,96462.66
2019-05-10T10:59:30.983Z,96469.38
2019-05-10T11:02:30.879Z,96467.74
2019-05-10T11:04:40.629Z,96466.83
2019-05-10T11:07:10.912Z,96460.16
2019-05-10T11:09:41.657Z,96467.20
2019-05-10T11:12:14.637Z,96465.39
2019-05-10T11:14:46.959Z,96465.84
2019-05-10T11:17:18.244Z,96472.98
2019-05-10T11:19:49.449Z,96468.30
2019-05-10T11:22:21.495Z,96465.89
2019-05-10T11:25:01.354Z,96467.38
2019-05-10T11:27:26.042Z,96474.89
2019-05-10T11:29:57.463Z,96475.09
2019-05-10T11:32:31.331Z,96474.25
2019-05-10T11:35:05.240Z,96473.36
2019-05-10T11:37:36.344Z,96464.34
2019-05-10T11:40:11.160Z,96469.83
2019-05-10T11:42:47.070Z,96464.28
2019-05-10T11:45:17.094Z,96464.22
2019-05-10T11:47:54.450Z,96457.91
2019-05-10T11:52:55.574Z,96473.47
2019-05-10T11:55:27.026Z,96475.33
2019-05-10T11:58:03.002Z,96481.65
2019-05-10T11:59:05.018Z,96464.52
2019-05-10T12:00:34.231Z,96473.66
2019-05-10T12:03:11.220Z,96463.55
2019-05-10T12:05:37.850Z,96479.03
2019-05-10T12:08:12.686Z,96474.63
2019-05-10T12:10:52.268Z,96462.63
2019-05-10T12:15:51.762Z,96479.19
2019-05-10T12:18:26.788Z,96481.52
2019-05-10T12:21:08.024Z,96476.06
2019-05-10T12:23:31.306Z,96481.68
2019-05-10T12:26:18.021Z,96478.95
2019-05-10T12:27:12.579Z,96489.70
2019-05-10T12:28:35.813Z,96512.48
2019-05-10T12:31:15.643Z,96533.45
2019-05-10T12:33:45.057Z,96537.75
2019-05-10T12:36:23.605Z,96551.90
2019-05-10T12:38:47.219Z,96553.02
2019-05-10T12:41:23.186Z,96553.34
2019-05-10T12:44:02.744Z,96548.52
2019-05-10T12:46:25.660Z,96547.14
2019-05-10T12:48:57.363Z,96548.39
2019-05-10T12:51:31.158Z,96533.52
2019-05-10T12:54:01.738Z,96542.91
2019-05-10T12:56:34.952Z,96537.20
2019-05-10T12:59:06.472Z,96532.94
2019-05-10T13:01:37.753Z,96532.94
2019-05-10T13:04:14.891Z,96529.09
2019-05-10T13:06:42.212Z,96526.72
2019-05-10T13:09:13.875Z,96523.18
2019-05-10T13:11:45.505Z,96523.72
2019-05-10T13:14:16.881Z,96525.34
2019-05-10T13:16:48.725Z,96522.45
2019-05-10T13:19:21.655Z,96521.93
2019-05-10T13:21:53.762Z,96520.24
2019-05-10T13:24:26.172Z,96521.21
2019-05-10T13:26:57.458Z,96520.50
2019-05-10T13:29:28.851Z,96517.70
2019-05-10T13:32:00.553Z,96519.56
2019-05-10T13:34:32.329Z,96512.41
2019-05-10T13:37:05.093Z,96511.63
2019-05-10T13:39:36.789Z,96513.87
2019-05-10T13:42:09.701Z,96509.87
2019-05-10T13:44:43.103Z,96503.94
2019-05-10T13:47:14.180Z,96497.41
2019-05-10T13:49:48.686Z,96498.45
2019-05-10T13:52:18.717Z,96493.14
2019-05-10T13:54:50.073Z,96502.41
2019-05-10T13:57:21.549Z,96503.25
2019-05-10T13:59:55.020Z,96504.75
2019-05-10T14:02:32.623Z,96504.36
2019-05-10T14:05:00.716Z,96506.30
2019-05-10T14:07:32.066Z,96507.58
2019-05-10T14:10:03.613Z,96506.11
2019-05-10T14:12:35.139Z,96503.71
2019-05-10T14:15:12.904Z,96492.22
2019-05-10T14:17:41.430Z,96481.55
2019-05-10T14:20:19.503Z,96484.09
2019-05-10T14:22:48.540Z,96485.60
2019-05-10T14:25:19.322Z,96484.19
2019-05-10T14:27:50.786Z,96480.67
2019-05-10T14:30:22.346Z,96490.48
2019-05-10T14:32:53.702Z,96492.63
2019-05-10T14:35:25.190Z,96502.39
2019-05-10T14:38:07.156Z,96512.66
2019-05-10T14:40:30.852Z,96506.49
2019-05-10T14:43:02.715Z,96510.73
2019-05-10T14:45:34.571Z,96513.39
2019-05-10T14:48:06.341Z,96512.47
2019-05-10T14:50:39.043Z,96513.42
2019-05-10T14:53:10.249Z,96515.06
2019-05-10T14:55:41.598Z,96525.58
2019-05-10T14:58:13.077Z,96530.18
2019-05-10T15:00:44.558Z,96537.23
2019-05-10T15:03:16.242Z,96534.20
2019-05-10T15:05:48.928Z,96537.88
2019-05-10T15:08:21.026Z,96531.52
2019-05-10T15:10:52.382Z,96547.13
2019-05-10T15:13:25.920Z,96551.77
2019-05-10T15:15:56.577Z,96549.50
2019-05-10T15:18:28.113Z,96555.02
2019-05-10T15:20:59.817Z,96556.14
2019-05-10T15:23:31.058Z,96556.32
2019-05-10T15:26:10.488Z,96560.67
2019-05-10T15:28:40.517Z,96551.86
2019-05-10T15:31:09.179Z,96542.95
2019-05-10T15:33:41.210Z,96543.13
2019-05-10T15:36:12.528Z,96548.72
2019-05-10T15:38:49.759Z,96543.48
2019-05-10T15:41:22.341Z,96535.92
2019-05-10T15:43:53.596Z,96536.62
2019-05-10T15:46:29.081Z,96540.01
2019-05-10T15:48:57.901Z,96543.11
2019-05-10T15:51:36.107Z,96533.58
2019-05-10T15:54:04.902Z,96536.82
2019-05-10T15:56:40.619Z,96540.23
2019-05-10T15:59:12.705Z,96539.59
2019-05-10T16:01:45.126Z,96534.79
2019-05-10T16:04:15.138Z,96543.41
2019-05-10T16:06:46.552Z,96544.91
2019-05-10T16:09:19.359Z,96543.42
2019-05-10T16:11:55.959Z,96535.70
2019-05-10T16:14:24.240Z,96536.48
2019-05-10T16:16:55.599Z,96536.97
2019-05-10T16:19:27.012Z,96534.22
2019-05-10T16:21:58.438Z,96543.64
2019-05-10T16:24:30.189Z,96543.71
2019-05-10T16:27:01.921Z,96539.39
2019-05-10T16:29:39.329Z,96537.96
2019-05-10T16:32:06.478Z,96544.20
2019-05-10T16:34:37.695Z,96539.56
2019-05-10T16:37:10.523Z,96538.63
2019-05-10T16:39:41.881Z,96539.47
2019-05-10T16:42:13.251Z,96538.18
2019-05-10T16:44:44.503Z,96545.61
2019-05-10T16:47:16.322Z,96539.08
2019-05-10T16:49:53.190Z,96544.53
2019-05-10T16:52:25.825Z,96540.84
2019-05-10T16:54:58.044Z,96539.26
2019-05-10T16:57:31.903Z,96540.59
2019-05-10T17:00:02.277Z,96533.09
2019-05-10T17:02:40.067Z,96535.23
2019-05-10T17:05:09.600Z,96532.20
2019-05-10T17:07:42.403Z,96525.87
2019-05-10T17:10:15.357Z,96526.11
2019-05-10T17:12:46.708Z,96540.61
2019-05-10T17:15:18.344Z,96542.13
2019-05-10T17:17:50.694Z,96539.61
2019-05-10T17:20:22.384Z,96547.95
2019-05-10T17:22:53.812Z,96543.89
2019-05-10T17:25:25.955Z,96545.80
2019-05-10T17:27:59.794Z,96543.85
2019-05-10T17:30:30.472Z,96550.39
2019-05-10T17:33:04.100Z,96553.55
2019-05-10T17:35:36.588Z,96559.00
2019-05-10T17:38:13.912Z,96555.45
2019-05-10T17:40:42.220Z,96558.92
2019-05-10T17:43:20.440Z,96555.02
2019-05-10T17:45:47.303Z,96556.41
2019-05-10T17:48:19.852Z,96559.98
2019-05-10T17:50:51.455Z,96563.57
2019-05-10T17:53:23.439Z,96572.34
2019-05-10T17:55:56.605Z,96578.51
2019-05-10T17:58:33.675Z,96580.59
2019-05-10T18:01:02.068Z,96581.72
2019-05-10T18:03:33.405Z,96569.47
2019-05-10T18:06:05.419Z,96569.50
2019-05-10T18:08:36.932Z,96578.30
2019-05-10T18:11:08.455Z,96575.02
2019-05-10T18:13:40.886Z,96578.83
2019-05-10T18:16:13.560Z,96585.97
2019-05-10T18:18:47.236Z,96594.11
2019-05-10T18:21:21.832Z,96593.34
2019-05-10T18:23:52.637Z,96599.38
2019-05-10T18:26:24.240Z,96595.94
2019-05-10T18:28:55.543Z,96592.56
2019-05-10T18:31:26.751Z,96593.05
2019-05-10T18:33:58.433Z,96588.91
2019-05-10T18:36:50.634Z,96595.53
2019-05-10T18:39:09.252Z,96601.70
2019-05-10T18:41:46.565Z,96600.11
2019-05-10T18:44:16.085Z,96597.62
2019-05-10T18:46:47.431Z,96597.66
2019-05-10T18:49:19.498Z,96601.59
2019-05-10T18:51:50.771Z,96604.19
2019-05-10T18:54:21.988Z,96604.22
2019-05-10T18:56:53.405Z,96603.80
2019-05-10T18:59:25.201Z,96604.66
2019-05-10T19:01:57.163Z,96608.56
2019-05-10T19:04:28.942Z,96614.59
2019-05-10T19:07:09.758Z,96612.42
2019-05-10T19:09:34.145Z,96607.69
2019-05-10T19:12:05.991Z,96618.88
2019-05-10T19:14:38.544Z,96619.30
2019-05-10T19:17:11.120Z,96621.03
2019-05-10T19:19:43.736Z,96620.16
2019-05-10T19:22:14.941Z,96633.92
2019-05-10T19:24:47.725Z,96626.19
2019-05-10T19:27:18.957Z,96631.33
2019-05-10T19:29:50.797Z,96636.94
2019-05-10T19:32:22.146Z,96638.22
2019-05-10T19:34:57.637Z,96644.66
2019-05-10T19:37:33.829Z,96640.34
2019-05-10T19:40:01.139Z,96637.36
2019-05-10T19:42:37.189Z,96630.03
2019-05-10T19:45:12.802Z,96628.34
2019-05-10T19:47:42.584Z,96626.61
2019-05-10T19:50:14.225Z,96630.45
2019-05-10T19:52:45.897Z,96622.73
2019-05-10T19:55:19.587Z,96627.03
2019-05-10T19:57:54.676Z,96633.09
2019-05-10T20:00:25.903Z,96626.20
2019-05-10T20:02:57.425Z,96624.05
2019-05-10T20:05:28.794Z,96622.75
2019-05-10T20:08:00.295Z,96612.44
2019-05-10T20:10:32.052Z,96611.55
2019-05-10T20:13:03.412Z,96610.27
2019-05-10T20:15:34.953Z,96612.84
2019-05-10T20:18:07.125Z,96609.84
2019-05-10T20:20:38.722Z,96605.54
2019-05-10T20:23:10.394Z,96600.41
2019-05-10T20:25:41.928Z,96599.96
2019-05-10T20:28:13.371Z,96601.66
2019-05-10T20:30:44.753Z,96603.82
2019-05-10T20:33:16.221Z,96608.13
2019-05-10T20:35:47.686Z,96606.83
2019-05-10T20:38:19.496Z,96605.11
2019-05-10T20:40:51.907Z,96595.66
2019-05-10T20:43:23.096Z,96590.48
2019-05-10T20:45:54.543Z,96587.48
2019-05-10T20:48:25.916Z,96575.44
2019-05-10T20:50:57.563Z,96587.50
2019-05-10T20:53:28.850Z,96580.63
2019-05-10T20:56:00.452Z,96580.23
2019-05-10T20:58:32.061Z,96575.07
2019-05-10T21:01:03.484Z,96579.77
2019-05-10T21:03:34.931Z,96585.36
2019-05-10T21:06:06.661Z,96589.62
2019-05-10T21:08:38.005Z,96589.20
2019-05-10T21:11:09.308Z,96593.09
2019-05-10T21:13:40.652Z,96593.08
2019-05-10T21:16:13.069Z,96590.08
2019-05-10T21:18:44.325Z,96590.52
2019-05-10T21:21:15.802Z,96598.67
2019-05-10T21:23:47.033Z,96605.12
2019-05-10T21:26:18.327Z,96602.13
2019-05-10T21:28:50.584Z,96613.73
2019-05-10T21:31:22.021Z,96602.95
2019-05-10T21:34:08.256Z,96602.08
2019-05-10T21:36:26.409Z,96599.06
2019-05-10T21:38:57.801Z,96605.54
2019-05-10T21:41:29.427Z,96605.98
2019-05-10T21:44:01.164Z,96604.27
2019-05-10T21:46:32.599Z,96604.27
2019-05-10T21:49:04.006Z,96601.27
2019-05-10T21:51:35.491Z,96606.41
2019-05-10T21:54:07.010Z,96594.36
2019-05-10T21:56:38.544Z,96599.08
2019-05-10T21:59:10.140Z,96590.94
2019-05-10T22:01:41.561Z,96596.50
2019-05-10T22:04:13.032Z,96596.08
2019-05-10T22:06:44.860Z,96597.78
2019-05-10T22:09:16.327Z,96602.08
2019-05-10T22:11:47.760Z,96587.42
2019-05-10T22:14:19.730Z,96588.27
2019-05-10T22:16:54.411Z,96587.42
2019-05-10T22:19:25.667Z,96589.17
2019-05-10T22:21:57.679Z,96584.84
2019-05-10T22:24:29.317Z,96586.55
2019-05-10T22:27:00.942Z,96577.09
2019-05-10T22:29:32.402Z,96580.98
2019-05-10T22:32:03.872Z,96577.52
2019-05-10T22:34:35.673Z,96579.22
2019-05-10T22:37:07.060Z,96588.66
2019-05-10T22:39:38.616Z,96589.98
2019-05-10T22:42:10.447Z,96602.86
2019-05-10T22:44:41.859Z,96600.30
2019-05-10T22:47:13.638Z,96600.70
2019-05-10T22:49:46.163Z,96588.70
2019-05-10T22:52:17.972Z,96586.13
2019-05-10T22:54:49.393Z,96583.53
2019-05-10T22:57:20.906Z,96594.75
2019-05-10T22:59:52.156Z,96593.48
2019-05-10T23:02:23.904Z,96593.92
2019-05-10T23:04:55.213Z,96596.95
2019-05-10T23:07:26.979Z,96603.41
2019-05-10T23:09:58.439Z,96601.23
2019-05-10T23:12:29.842Z,96593.95
2019-05-10T23:15:01.070Z,96589.23
2019-05-10T23:17:34.219Z,96577.22
2019-05-10T23:20:05.926Z,96576.36
2019-05-10T23:22:37.262Z,96578.50
2019-05-10T23:25:08.929Z,96578.50
2019-05-10T23:27:40.315Z,96580.64
2019-05-10T23:30:12.674Z,96569.48
2019-05-10T23:32:44.002Z,96575.89
2019-05-10T23:35:15.479Z,96568.16
2019-05-10T23:37:46.875Z,96563.87
2019-05-10T23:40:18.690Z,96567.30
2019-05-10T23:42:50.103Z,96570.75
2019-05-10T23:45:21.901Z,96557.88
2019-05-10T23:47:53.237Z,96556.14
2019-05-10T23:50:24.713Z,96557.45
2019-05-10T23:52:56.681Z,96554.02
2019-05-10T23:55:28.099Z,96567.33
2019-05-10T23:57:59.477Z,96562.19
